createdAt,value
2023-02-14T00:01:20.743Z,36.17
2023-02-14T00:03:49.522Z,38.97
2023-02-14T00:06:16.502Z,36.72
2023-02-14T00:08:45.135Z,41.85
2023-02-14T00:11:13.405Z,42.90
2023-02-14T00:14:00.437Z,44.22
2023-02-14T00:16:27.420Z,46.92
2023-02-14T00:19:12.395Z,53.63
2023-02-14T00:21:41.090Z,54.58
2023-02-14T00:24:13.697Z,56.80
2023-02-14T00:26:41.108Z,57.95
2023-02-14T00:29:22.517Z,60.47
2023-02-14T00:31:51.346Z,62.78
2023-02-14T00:34:19.214Z,63.45
2023-02-14T00:36:47.060Z,60.92
2023-02-14T00:39:16.964Z,67.43
2023-02-14T00:41:44.584Z,64.75
2023-02-14T00:44:13.545Z,61.97
2023-02-14T00:46:41.279Z,66.18
2023-02-14T00:49:08.222Z,64.10
2023-02-14T00:51:35.606Z,63.47
2023-02-14T00:54:03.468Z,64.72
2023-02-14T00:56:31.684Z,64.38
2023-02-14T00:58:58.590Z,66.75
2023-02-14T01:01:25.611Z,63.67
2023-02-14T01:03:52.587Z,63.33
2023-02-14T01:06:19.880Z,65.18
2023-02-14T01:08:46.676Z,64.15
2023-02-14T01:11:19.997Z,66.82
2023-02-14T01:13:48.482Z,67.47
2023-02-14T01:16:20.542Z,69.68
2023-02-14T01:18:48.378Z,75.75
2023-02-14T01:21:23.701Z,76.82
2023-02-14T01:24:00.760Z,75.80
2023-02-14T01:26:28.895Z,78.72
2023-02-14T01:28:56.725Z,78.85
2023-02-14T01:31:28.887Z,78.03
2023-02-14T01:33:57.834Z,78.82
2023-02-14T01:36:30.677Z,77.75
2023-02-14T01:39:00.264Z,73.68
2023-02-14T01:41:30.437Z,68.82
2023-02-14T01:46:31.298Z,66.38
2023-02-14T01:49:21.187Z,67.97
2023-02-14T01:52:22.553Z,67.55
2023-02-14T01:54:54.468Z,66.35
2023-02-14T01:57:24.729Z,67.50
2023-02-14T02:02:24.254Z,68.80
2023-02-14T02:04:56.217Z,68.65
2023-02-14T02:07:29.335Z,66.30
2023-02-14T02:10:02.184Z,71.88
2023-02-14T02:15:00.315Z,68.72
2023-02-14T02:17:57.134Z,66.47
2023-02-14T02:20:36.098Z,69.50
2023-02-14T02:23:03.571Z,71.53
2023-02-14T02:25:52.345Z,70.45
2023-02-14T02:28:36.611Z,63.67
2023-02-14T02:31:21.751Z,66.90
2023-02-14T02:34:14.705Z,61.42
2023-02-14T02:36:56.745Z,61.08
2023-02-14T02:39:59.076Z,55.63
2023-02-14T02:42:57.220Z,57.53
2023-02-14T02:45:33.068Z,63.22
2023-02-14T02:48:09.918Z,66.40
2023-02-14T02:51:02.397Z,72.70
2023-02-14T02:53:43.923Z,60.67
2023-02-14T02:56:45.908Z,58.25
2023-02-14T02:59:27.833Z,53.22
2023-02-14T03:02:14.622Z,59.03
2023-02-14T03:04:54.611Z,54.67
2023-02-14T03:07:35.018Z,58.80
2023-02-14T03:10:12.815Z,55.08
2023-02-14T03:13:24.457Z,54.78
2023-02-14T03:16:14.578Z,49.08
2023-02-14T03:19:11.807Z,44.13
2023-02-14T03:21:57.162Z,43.22
2023-02-14T03:24:41.666Z,41.60
2023-02-14T03:27:34.083Z,42.67
2023-02-14T03:30:04.117Z,37.05
2023-02-14T03:32:50.171Z,37.60
2023-02-14T03:35:30.772Z,36.83
2023-02-14T03:38:03.272Z,38.45
2023-02-14T03:40:40.513Z,36.97
2023-02-14T03:43:19.353Z,41.33
2023-02-14T03:45:54.944Z,39.97
2023-02-14T03:48:25.054Z,39.60
2023-02-14T03:50:54.053Z,39.60
2023-02-14T03:53:26.177Z,40.38
2023-02-14T03:56:03.889Z,40.90
2023-02-14T03:58:35.128Z,42.35
2023-02-14T04:01:29.452Z,40.75
2023-02-14T04:03:59.204Z,39.47
2023-02-14T04:06:26.512Z,41.35
2023-02-14T04:08:53.498Z,42.42
2023-02-14T04:11:20.976Z,43.47
2023-02-14T04:13:48.620Z,44.22
2023-02-14T04:16:15.413Z,41.92
2023-02-14T04:19:01.538Z,46.33
2023-02-14T04:21:28.461Z,43.75
2023-02-14T04:23:55.395Z,42.60
2023-02-14T04:26:22.190Z,41.92
2023-02-14T04:28:48.955Z,43.60
2023-02-14T04:31:16.029Z,38.35
2023-02-14T04:33:44.441Z,34.83
2023-02-14T04:36:11.249Z,35.00
2023-02-14T04:38:38.174Z,35.97
2023-02-14T04:41:05.057Z,31.67
2023-02-14T04:43:31.966Z,41.15
2023-02-14T04:45:58.794Z,40.38
2023-02-14T04:48:25.604Z,39.03
2023-02-14T04:50:53.724Z,39.75
2023-02-14T04:53:21.305Z,40.63
2023-02-14T04:55:51.451Z,41.08
2023-02-14T04:58:18.496Z,40.15
2023-02-14T05:00:45.424Z,40.85
2023-02-14T05:03:12.380Z,42.53
2023-02-14T05:05:39.306Z,45.58
2023-02-14T05:08:06.132Z,45.15
2023-02-14T05:10:33.034Z,45.45
2023-02-14T05:13:01.226Z,46.88
2023-02-14T05:15:28.052Z,44.88
2023-02-14T05:17:54.918Z,46.25
2023-02-14T05:20:21.701Z,43.95
2023-02-14T05:22:48.581Z,42.60
2023-02-14T05:25:15.411Z,40.60
2023-02-14T05:27:42.489Z,41.03
2023-02-14T05:30:10.146Z,41.58
2023-02-14T05:32:37.314Z,41.83
2023-02-14T05:35:04.636Z,42.83
2023-02-14T05:37:31.745Z,43.55
2023-02-14T05:39:58.618Z,41.05
2023-02-14T05:42:25.522Z,43.85
2023-02-14T05:44:52.357Z,42.20
2023-02-14T05:47:19.218Z,43.22
2023-02-14T05:49:45.984Z,44.55
2023-02-14T05:52:12.817Z,44.60
2023-02-14T05:54:39.675Z,46.60
2023-02-14T05:57:06.628Z,46.33
2023-02-14T05:59:33.453Z,49.88
2023-02-14T06:02:00.387Z,49.10
2023-02-14T06:04:27.385Z,51.25
2023-02-14T06:06:54.204Z,51.92
2023-02-14T06:09:21.166Z,50.05
2023-02-14T06:11:48.072Z,53.03
2023-02-14T06:14:15.021Z,53.67
2023-02-14T06:16:42.122Z,52.78
2023-02-14T06:19:08.994Z,50.13
2023-02-14T06:21:38.451Z,47.95
2023-02-14T06:24:05.348Z,47.53
2023-02-14T06:26:33.407Z,47.95
2023-02-14T06:29:00.298Z,50.20
2023-02-14T06:31:27.353Z,50.03
2023-02-14T06:33:55.088Z,48.10
2023-02-14T06:36:22.974Z,49.00
2023-02-14T06:38:50.644Z,55.70
2023-02-14T06:41:18.121Z,49.35
2023-02-14T06:43:48.869Z,47.72
2023-02-14T06:46:17.678Z,48.25
2023-02-14T06:48:47.507Z,46.15
2023-02-14T06:51:14.442Z,45.85
2023-02-14T06:53:41.351Z,47.50
2023-02-14T06:56:08.235Z,48.67
2023-02-14T06:58:35.457Z,48.30
2023-02-14T07:01:03.008Z,50.13
2023-02-14T07:03:30.067Z,50.90
2023-02-14T07:05:58.354Z,51.88
2023-02-14T07:08:26.621Z,51.45
2023-02-14T07:10:59.837Z,51.38
2023-02-14T07:13:27.297Z,49.78
2023-02-14T07:15:54.258Z,50.30
2023-02-14T07:18:21.417Z,50.10
2023-02-14T07:20:50.262Z,50.65
2023-02-14T07:23:17.682Z,50.90
2023-02-14T07:25:44.698Z,49.47
2023-02-14T07:28:11.859Z,50.47
2023-02-14T07:30:38.834Z,50.15
2023-02-14T07:33:08.496Z,52.38
2023-02-14T07:35:35.578Z,48.08
2023-02-14T07:38:02.456Z,48.38
2023-02-14T07:40:30.160Z,48.63
2023-02-14T07:43:01.168Z,48.80
2023-02-14T07:45:28.116Z,50.33
2023-02-14T07:47:55.743Z,48.53
2023-02-14T07:50:23.567Z,48.38
2023-02-14T07:52:50.824Z,47.35
2023-02-14T07:55:19.390Z,47.28
2023-02-14T07:57:48.566Z,49.70
2023-02-14T08:00:16.039Z,46.20
2023-02-14T08:02:42.967Z,46.53
2023-02-14T08:05:10.191Z,44.58
2023-02-14T08:07:37.054Z,48.28
2023-02-14T08:10:04.129Z,46.33
2023-02-14T08:12:49.421Z,46.42
2023-02-14T08:15:37.310Z,47.35
2023-02-14T08:18:04.372Z,44.35
2023-02-14T08:20:31.588Z,45.72
2023-02-14T08:22:58.546Z,42.78
2023-02-14T08:25:25.420Z,42.28
2023-02-14T08:27:52.251Z,45.03
2023-02-14T08:30:19.323Z,44.25
2023-02-14T08:32:46.463Z,43.63
2023-02-14T08:35:14.577Z,41.63
2023-02-14T08:37:41.520Z,43.30
2023-02-14T08:40:09.130Z,41.70
2023-02-14T08:42:36.158Z,39.97
2023-02-14T08:45:03.543Z,40.47
2023-02-14T08:47:35.913Z,40.20
2023-02-14T08:50:07.201Z,41.78
2023-02-14T08:52:34.159Z,40.28
2023-02-14T08:55:04.763Z,39.03
2023-02-14T08:57:34.549Z,36.35
2023-02-14T09:00:04.807Z,36.63
2023-02-14T09:05:00.492Z,35.53
2023-02-14T09:07:27.439Z,37.17
2023-02-14T09:09:54.301Z,35.85
2023-02-14T09:12:21.289Z,34.97
2023-02-14T09:14:48.267Z,37.00
2023-02-14T09:17:16.419Z,37.60
2023-02-14T09:19:43.619Z,36.83
2023-02-14T09:22:11.599Z,36.97
2023-02-14T09:24:40.040Z,35.80
2023-02-14T09:27:07.940Z,36.55
2023-02-14T09:29:34.953Z,38.92
2023-02-14T09:32:02.445Z,39.20
2023-02-14T09:34:30.223Z,35.92
2023-02-14T09:36:57.174Z,36.40
2023-02-14T09:39:24.112Z,37.42
2023-02-14T09:41:53.589Z,38.28
2023-02-14T09:44:52.431Z,37.33
2023-02-14T09:47:39.495Z,34.53
2023-02-14T09:50:31.745Z,31.80
2023-02-14T09:53:02.989Z,27.70
2023-02-14T09:55:44.638Z,26.02
2023-02-14T09:58:31.021Z,23.98
2023-02-14T10:01:16.759Z,19.83
2023-02-14T10:04:18.871Z,19.80
2023-02-14T10:07:00.819Z,21.33
2023-02-14T10:09:33.683Z,21.20
2023-02-14T10:12:02.124Z,22.33
2023-02-14T10:14:40.444Z,25.08
2023-02-14T10:17:19.561Z,30.58
2023-02-14T10:19:54.213Z,29.50
2023-02-14T10:22:27.495Z,32.50
2023-02-14T10:25:04.855Z,32.45
2023-02-14T10:27:44.852Z,30.00
2023-02-14T10:30:21.456Z,30.40
2023-02-14T10:33:13.745Z,26.88
2023-02-14T10:35:50.559Z,24.15
2023-02-14T10:39:03.231Z,25.60
2023-02-14T10:42:14.974Z,28.58
2023-02-14T10:44:59.010Z,27.48
2023-02-14T10:47:54.307Z,27.95
2023-02-14T10:50:21.320Z,23.92
2023-02-14T10:53:01.139Z,21.17
2023-02-14T10:55:36.616Z,22.50
2023-02-14T10:58:09.991Z,21.33
2023-02-14T11:01:04.139Z,20.73
2023-02-14T11:03:33.455Z,19.50
2023-02-14T11:06:00.394Z,19.77
2023-02-14T11:08:29.335Z,21.55
2023-02-14T11:11:03.601Z,20.83
2023-02-14T11:13:38.957Z,20.92
2023-02-14T11:16:09.289Z,19.77
2023-02-14T11:18:37.617Z,17.73
2023-02-14T11:21:15.117Z,19.67
2023-02-14T11:23:49.755Z,18.95
2023-02-14T11:26:33.371Z,19.77
2023-02-14T11:29:03.506Z,17.75
2023-02-14T11:33:58.616Z,18.75
2023-02-14T11:36:27.702Z,18.73
2023-02-14T11:39:14.976Z,19.52
2023-02-14T11:41:57.032Z,20.27
2023-02-14T11:44:27.191Z,19.83
2023-02-14T11:49:36.323Z,20.15
2023-02-14T11:52:11.951Z,21.48
2023-02-14T11:54:45.072Z,21.10
2023-02-14T11:57:28.422Z,19.70
2023-02-14T11:59:57.291Z,22.13
2023-02-14T12:02:32.909Z,19.70
2023-02-14T12:05:27.842Z,20.58
2023-02-14T12:07:57.768Z,20.45
2023-02-14T12:10:38.848Z,21.17
2023-02-14T12:13:08.649Z,21.08
2023-02-14T12:15:44.805Z,20.67
2023-02-14T12:18:30.439Z,20.83
2023-02-14T12:21:16.256Z,21.75
2023-02-14T12:24:18.785Z,20.83
2023-02-14T12:27:04.024Z,21.13
2023-02-14T12:29:37.595Z,21.83
2023-02-14T12:32:25.400Z,20.55
2023-02-14T12:34:58.080Z,19.77
2023-02-14T12:37:50.721Z,20.15
2023-02-14T12:40:43.712Z,20.10
2023-02-14T12:43:23.220Z,19.80
2023-02-14T12:45:55.960Z,20.35
2023-02-14T12:48:50.437Z,22.98
2023-02-14T12:51:29.527Z,21.65
2023-02-14T12:54:30.394Z,21.33
2023-02-14T12:57:08.935Z,21.10
2023-02-14T12:59:54.504Z,22.23
2023-02-14T13:02:43.247Z,20.63
2023-02-14T13:05:56.965Z,21.23
2023-02-14T13:08:35.587Z,20.05
2023-02-14T13:11:39.843Z,20.75
2023-02-14T13:14:27.696Z,22.13
2023-02-14T13:17:15.364Z,20.20
2023-02-14T13:19:48.163Z,20.60
2023-02-14T13:22:20.662Z,20.27
2023-02-14T13:24:51.370Z,21.88
2023-02-14T13:27:39.053Z,21.83
2023-02-14T13:30:32.294Z,20.60
2023-02-14T13:33:06.381Z,22.67
2023-02-14T13:35:34.539Z,22.77
2023-02-14T13:38:06.834Z,21.17
2023-02-14T13:40:35.843Z,20.02
2023-02-14T13:43:02.873Z,19.25
2023-02-14T13:45:30.296Z,19.02
2023-02-14T13:48:06.139Z,19.80
2023-02-14T13:50:37.377Z,21.55
2023-02-14T13:53:04.274Z,20.73
2023-02-14T13:55:37.511Z,20.77
2023-02-14T13:58:07.758Z,21.52
2023-02-14T14:00:41.972Z,20.70
2023-02-14T14:03:27.724Z,20.23
2023-02-14T14:05:57.573Z,19.65
2023-02-14T14:08:25.098Z,22.65
2023-02-14T14:11:00.808Z,20.23
2023-02-14T14:13:42.504Z,21.02
2023-02-14T14:16:25.735Z,20.05
2023-02-14T14:19:30.821Z,19.15
2023-02-14T14:22:05.148Z,19.10
2023-02-14T14:24:40.292Z,17.55
2023-02-14T14:27:15.402Z,18.23
2023-02-14T14:29:52.639Z,17.90
2023-02-14T14:32:24.869Z,17.58
2023-02-14T14:34:57.564Z,18.05
2023-02-14T14:37:31.082Z,17.52
2023-02-14T14:40:05.023Z,19.38
2023-02-14T14:42:41.321Z,20.58
2023-02-14T14:45:20.804Z,19.08
2023-02-14T14:47:48.982Z,19.08
2023-02-14T14:50:36.460Z,18.75
2023-02-14T14:53:09.713Z,20.50
2023-02-14T14:55:38.537Z,18.63
2023-02-14T14:58:11.203Z,17.70
2023-02-14T15:00:42.386Z,18.25
2023-02-14T15:03:12.231Z,18.42
2023-02-14T15:05:42.298Z,18.13
2023-02-14T15:11:03.011Z,18.25
2023-02-14T15:13:57.554Z,18.45
2023-02-14T15:16:45.123Z,18.58
2023-02-14T15:19:37.269Z,17.42
2023-02-14T15:22:07.779Z,17.33
2023-02-14T15:24:38.566Z,18.90
2023-02-14T15:27:14.737Z,17.95
2023-02-14T15:29:42.033Z,19.45
2023-02-14T15:32:11.211Z,18.02
2023-02-14T15:34:38.301Z,16.65
2023-02-14T15:37:07.175Z,17.27
2023-02-14T15:39:43.146Z,17.52
2023-02-14T15:42:30.019Z,17.50
2023-02-14T15:45:25.578Z,16.90
2023-02-14T15:47:55.907Z,17.00
2023-02-14T15:50:27.991Z,17.27
2023-02-14T15:53:07.104Z,17.50
2023-02-14T15:55:36.200Z,17.67
2023-02-14T15:58:17.984Z,18.52
2023-02-14T16:00:45.293Z,18.13
2023-02-14T16:03:19.797Z,17.75
2023-02-14T16:05:48.520Z,18.00
2023-02-14T16:08:42.284Z,16.77
2023-02-14T16:11:30.869Z,17.63
2023-02-14T16:13:58.277Z,19.42
2023-02-14T16:16:25.240Z,19.05
2023-02-14T16:18:56.825Z,19.95
2023-02-14T16:21:29.554Z,20.17
2023-02-14T16:24:10.877Z,20.98
2023-02-14T16:26:45.034Z,20.92
2023-02-14T16:29:17.750Z,22.95
2023-02-14T16:32:14.685Z,22.95
2023-02-14T16:34:42.644Z,22.30
2023-02-14T16:37:20.065Z,22.73
2023-02-14T16:39:47.698Z,23.70
2023-02-14T16:42:18.783Z,23.45
2023-02-14T16:44:47.210Z,24.48
2023-02-14T16:47:15.847Z,23.75
2023-02-14T16:49:42.784Z,24.83
2023-02-14T16:52:23.930Z,25.63
2023-02-14T16:54:51.026Z,25.63
2023-02-14T16:57:23.183Z,27.35
2023-02-14T16:59:50.969Z,26.58
2023-02-14T17:02:19.214Z,26.60
2023-02-14T17:04:46.322Z,25.80
2023-02-14T17:07:15.712Z,25.80
2023-02-14T17:09:48.562Z,26.52
2023-02-14T17:12:24.747Z,32.25
2023-02-14T17:14:54.863Z,31.48
2023-02-14T17:19:50.366Z,25.08
2023-02-14T17:22:19.277Z,25.67
2023-02-14T17:24:46.084Z,27.35
2023-02-14T17:27:12.973Z,28.83
2023-02-14T17:29:39.770Z,28.35
2023-02-14T17:32:06.766Z,30.20
2023-02-14T17:34:34.039Z,27.35
2023-02-14T17:37:00.995Z,31.20
2023-02-14T17:39:27.844Z,30.15
2023-02-14T17:41:56.863Z,30.20
2023-02-14T17:44:23.947Z,29.95
2023-02-14T17:46:51.104Z,27.42
2023-02-14T17:49:18.019Z,28.27
2023-02-14T17:51:44.962Z,29.13
2023-02-14T17:54:12.703Z,29.00
2023-02-14T17:56:39.759Z,30.23
2023-02-14T17:59:06.567Z,29.80
2023-02-14T18:01:34.636Z,30.50
2023-02-14T18:04:01.570Z,30.13
2023-02-14T18:06:28.806Z,31.60
2023-02-14T18:08:58.675Z,31.77
2023-02-14T18:11:28.028Z,30.05
2023-02-14T18:13:56.033Z,30.43
2023-02-14T18:16:24.918Z,30.30
2023-02-14T18:18:52.645Z,30.63
2023-02-14T18:21:24.712Z,30.38
2023-02-14T18:23:52.075Z,30.23
2023-02-14T18:26:19.654Z,29.90
2023-02-14T18:28:46.698Z,32.20
2023-02-14T18:31:16.179Z,28.80
2023-02-14T18:33:43.833Z,28.27
2023-02-14T18:36:13.750Z,30.67
2023-02-14T18:38:42.132Z,30.92
2023-02-14T18:41:12.067Z,29.85
2023-02-14T18:43:41.144Z,30.23
2023-02-14T18:46:10.512Z,30.60
2023-02-14T18:48:37.990Z,31.13
2023-02-14T18:51:28.648Z,29.38
2023-02-14T18:53:57.956Z,30.15
2023-02-14T18:56:29.045Z,30.17
2023-02-14T18:59:01.334Z,29.88
2023-02-14T19:01:36.972Z,28.63
2023-02-14T19:04:06.486Z,30.25
2023-02-14T19:06:34.275Z,30.10
2023-02-14T19:09:02.718Z,28.95
2023-02-14T19:11:31.891Z,30.98
2023-02-14T19:14:01.358Z,29.93
2023-02-14T19:16:32.285Z,30.27
2023-02-14T19:19:01.026Z,31.55
2023-02-14T19:21:30.899Z,29.67
2023-02-14T19:23:58.528Z,30.13
2023-02-14T19:26:35.023Z,30.33
2023-02-14T19:29:06.296Z,31.00
2023-02-14T19:31:37.622Z,29.75
2023-02-14T19:34:06.868Z,31.60
2023-02-14T19:36:36.458Z,31.45
2023-02-14T19:39:03.812Z,29.98
2023-02-14T19:41:34.529Z,30.10
2023-02-14T19:44:06.769Z,32.65
2023-02-14T19:46:34.774Z,30.60
2023-02-14T19:49:01.956Z,32.75
2023-02-14T19:51:31.225Z,30.02
2023-02-14T19:53:59.984Z,31.83
2023-02-14T19:56:30.477Z,32.08
2023-02-14T19:58:58.046Z,31.70
2023-02-14T20:01:35.152Z,30.25
2023-02-14T20:04:03.098Z,30.33
2023-02-14T20:06:36.142Z,30.65
2023-02-14T20:09:04.471Z,30.75
2023-02-14T20:11:46.671Z,30.55
2023-02-14T20:14:14.749Z,30.00
2023-02-14T20:16:41.748Z,31.38
2023-02-14T20:19:13.855Z,31.33
2023-02-14T20:21:42.197Z,32.47
2023-02-14T20:24:10.965Z,34.40
2023-02-14T20:26:41.786Z,33.70
2023-02-14T20:29:10.670Z,32.70
2023-02-14T20:31:41.730Z,34.38
2023-02-14T20:34:09.287Z,33.53
2023-02-14T20:36:36.834Z,33.65
2023-02-14T20:39:06.210Z,33.70
2023-02-14T20:41:35.007Z,33.45
2023-02-14T20:44:07.913Z,33.22
2023-02-14T20:46:35.534Z,34.67
2023-02-14T20:49:03.498Z,34.13
2023-02-14T20:51:30.513Z,34.15
2023-02-14T20:53:57.570Z,32.67
2023-02-14T20:56:27.710Z,39.65
2023-02-14T20:59:01.779Z,35.30
2023-02-14T21:01:28.884Z,38.30
2023-02-14T21:03:56.182Z,36.17
2023-02-14T21:06:26.492Z,34.25
2023-02-14T21:08:53.579Z,33.55
2023-02-14T21:11:22.859Z,32.97
2023-02-14T21:13:50.250Z,33.03
2023-02-14T21:16:19.829Z,33.53
2023-02-14T21:18:51.937Z,36.00
2023-02-14T21:21:36.408Z,36.28
2023-02-14T21:24:08.908Z,33.75
2023-02-14T21:26:37.493Z,33.28
2023-02-14T21:29:05.142Z,37.10
2023-02-14T21:31:32.690Z,33.42
2023-02-14T21:34:02.053Z,31.92
2023-02-14T21:36:31.656Z,32.33
2023-02-14T21:38:59.882Z,32.65
2023-02-14T21:41:29.487Z,33.70
2023-02-14T21:44:01.739Z,32.30
2023-02-14T21:46:31.913Z,32.40
2023-02-14T21:49:19.541Z,32.67
2023-02-14T21:51:48.010Z,31.67
2023-02-14T21:54:15.711Z,33.42
2023-02-14T21:56:43.044Z,34.53
2023-02-14T21:59:09.950Z,33.15
2023-02-14T22:01:39.178Z,34.00
2023-02-14T22:04:10.861Z,33.00
2023-02-14T22:06:40.092Z,35.03
2023-02-14T22:09:07.284Z,33.40
2023-02-14T22:11:34.892Z,32.50
2023-02-14T22:14:02.169Z,34.08
2023-02-14T22:16:29.514Z,33.70
2023-02-14T22:18:58.863Z,35.17
2023-02-14T22:21:27.220Z,36.55
2023-02-14T22:23:55.162Z,34.22
2023-02-14T22:26:24.735Z,34.30
2023-02-14T22:28:59.809Z,34.90
2023-02-14T22:31:29.829Z,33.97
2023-02-14T22:33:59.303Z,33.88
2023-02-14T22:36:26.177Z,32.35
2023-02-14T22:38:53.073Z,35.97
2023-02-14T22:41:23.334Z,32.92
2023-02-14T22:46:21.478Z,32.13
2023-02-14T22:48:50.319Z,33.75
2023-02-14T22:51:31.536Z,31.95
2023-02-14T22:54:01.122Z,33.05
2023-02-14T22:56:39.841Z,33.42
2023-02-14T22:59:09.178Z,32.15
2023-02-14T23:01:36.763Z,32.90
2023-02-14T23:04:04.471Z,31.90
2023-02-14T23:06:34.473Z,31.27
2023-02-14T23:09:03.956Z,31.27
2023-02-14T23:11:33.077Z,31.83
2023-02-14T23:14:18.344Z,33.08
2023-02-14T23:17:04.449Z,33.78
2023-02-14T23:19:53.138Z,34.72
2023-02-14T23:22:40.103Z,33.92
2023-02-14T23:25:09.911Z,35.92
2023-02-14T23:27:45.436Z,38.90
2023-02-14T23:30:18.837Z,39.00
2023-02-14T23:32:45.831Z,34.45
2023-02-14T23:35:12.913Z,35.45
2023-02-14T23:37:42.659Z,36.63
2023-02-14T23:40:10.116Z,34.78
2023-02-14T23:42:37.544Z,34.60
2023-02-14T23:45:23.781Z,33.83
2023-02-14T23:47:50.771Z,36.08
2023-02-14T23:50:17.658Z,37.88
2023-02-14T23:52:44.813Z,44.80
2023-02-14T23:55:12.464Z,43.95
2023-02-14T23:57:39.751Z,43.63
